createdAt,value
2023-03-19T00:01:24.407Z,99473.25
2023-03-19T00:04:09.023Z,99459.22
2023-03-19T00:06:37.150Z,99447.47
2023-03-19T00:09:06.679Z,99449.44
2023-03-19T00:11:35.415Z,99455.09
2023-03-19T00:14:06.116Z,99455.84
2023-03-19T00:16:35.568Z,99455.53
2023-03-19T00:19:06.323Z,99459.88
2023-03-19T00:21:37.541Z,99457.31
2023-03-19T00:24:20.684Z,99456.34
2023-03-19T00:26:51.374Z,99452.16
2023-03-19T00:29:34.907Z,99459.22
2023-03-19T00:32:07.622Z,99455.22
2023-03-19T00:34:42.827Z,99461.28
2023-03-19T00:37:12.323Z,99454.66
2023-03-19T00:39:46.749Z,99461.53
2023-03-19T00:42:19.964Z,99466.63
2023-03-19T00:45:03.906Z,99455.47
2023-03-19T00:47:36.652Z,99464.81
2023-03-19T00:50:14.924Z,99467.66
2023-03-19T00:52:49.497Z,99467.75
2023-03-19T00:55:20.696Z,99465.91
2023-03-19T00:57:50.410Z,99464.63
2023-03-19T01:00:28.703Z,99465.34
2023-03-19T01:02:59.101Z,99464.69
2023-03-19T01:05:31.162Z,99463.59
2023-03-19T01:08:01.155Z,99459.81
2023-03-19T01:10:29.492Z,99456.53
2023-03-19T01:12:59.069Z,99454.50
2023-03-19T01:15:27.544Z,99446.97
2023-03-19T01:18:07.283Z,99446.66
2023-03-19T01:20:45.553Z,99442.91
2023-03-19T01:23:15.442Z,99439.06
2023-03-19T01:25:50.103Z,99444.19
2023-03-19T01:28:31.374Z,99441.97
2023-03-19T01:31:09.614Z,99447.78
2023-03-19T01:34:10.793Z,99442.94
2023-03-19T01:37:06.239Z,99445.34
2023-03-19T01:39:39.190Z,99433.81
2023-03-19T01:42:24.892Z,99446.00
2023-03-19T01:45:33.932Z,99448.53
2023-03-19T01:48:29.287Z,99442.44
2023-03-19T01:51:17.647Z,99439.94
2023-03-19T01:54:19.260Z,99443.53
2023-03-19T01:57:24.185Z,99445.59
2023-03-19T02:00:15.209Z,99441.41
2023-03-19T02:02:55.578Z,99435.56
2023-03-19T02:06:00.595Z,99423.22
2023-03-19T02:08:37.619Z,99426.38
2023-03-19T02:11:12.745Z,99421.91
2023-03-19T02:13:49.872Z,99414.97
2023-03-19T02:16:26.889Z,99422.41
2023-03-19T02:19:01.168Z,99429.06
2023-03-19T02:21:31.740Z,99437.84
2023-03-19T02:24:07.809Z,99433.03
2023-03-19T02:27:02.863Z,99440.09
2023-03-19T02:29:37.144Z,99443.44
2023-03-19T02:32:08.484Z,99439.09
2023-03-19T02:34:45.955Z,99442.78
2023-03-19T02:37:26.500Z,99443.25
2023-03-19T02:39:58.702Z,99441.31
2023-03-19T02:42:46.402Z,99448.94
2023-03-19T02:45:24.015Z,99448.44
2023-03-19T02:47:52.216Z,99454.13
2023-03-19T02:50:27.658Z,99455.88
2023-03-19T02:52:58.218Z,99457.78
2023-03-19T02:55:27.670Z,99459.81
2023-03-19T02:58:07.484Z,99449.06
2023-03-19T03:00:38.404Z,99446.22
2023-03-19T03:03:16.753Z,99450.56
2023-03-19T03:05:49.670Z,99451.38
2023-03-19T03:08:22.994Z,99442.66
2023-03-19T03:10:51.393Z,99456.56
2023-03-19T03:13:23.741Z,99462.97
2023-03-19T03:15:54.103Z,99453.91
2023-03-19T03:18:23.049Z,99466.97
2023-03-19T03:20:52.401Z,99449.03
2023-03-19T03:23:22.104Z,99453.09
2023-03-19T03:25:59.593Z,99465.53
2023-03-19T03:28:37.032Z,99465.09
2023-03-19T03:31:16.871Z,99477.25
2023-03-19T03:33:46.414Z,99485.63
2023-03-19T03:36:23.718Z,99485.31
2023-03-19T03:38:51.860Z,99489.56
2023-03-19T03:41:24.112Z,99501.16
2023-03-19T03:44:01.239Z,99502.84
2023-03-19T03:46:40.708Z,99502.38
2023-03-19T03:49:10.745Z,99502.25
2023-03-19T03:51:42.524Z,99495.97
2023-03-19T03:54:14.085Z,99487.28
2023-03-19T03:56:42.449Z,99491.13
2023-03-19T03:59:17.554Z,99492.09
2023-03-19T04:01:49.540Z,99492.09
2023-03-19T04:04:22.478Z,99491.03
2023-03-19T04:06:53.018Z,99490.84
2023-03-19T04:09:40.535Z,99505.38
2023-03-19T04:12:11.261Z,99512.72
2023-03-19T04:14:50.384Z,99505.41
2023-03-19T04:17:24.469Z,99522.53
2023-03-19T04:19:56.830Z,99523.97
2023-03-19T04:22:26.284Z,99516.47
2023-03-19T04:24:54.714Z,99509.13
2023-03-19T04:27:24.293Z,99500.59
2023-03-19T04:29:57.594Z,99507.66
2023-03-19T04:32:35.202Z,99512.63
2023-03-19T04:35:21.445Z,99515.31
2023-03-19T04:37:50.970Z,99513.38
2023-03-19T04:40:27.842Z,99516.88
2023-03-19T04:42:56.279Z,99525.28
2023-03-19T04:45:37.887Z,99531.81
2023-03-19T04:48:09.665Z,99531.59
2023-03-19T04:50:41.097Z,99520.84
2023-03-19T04:53:12.992Z,99511.22
2023-03-19T04:55:49.742Z,99504.94
2023-03-19T04:58:20.399Z,99509.75
2023-03-19T05:01:01.983Z,99520.97
2023-03-19T05:03:59.827Z,99509.63
2023-03-19T05:06:32.569Z,99512.66
2023-03-19T05:09:06.349Z,99511.81
2023-03-19T05:11:36.973Z,99513.34
2023-03-19T05:14:09.873Z,99513.72
2023-03-19T05:17:27.408Z,99507.22
2023-03-19T05:20:23.897Z,99510.84
2023-03-19T05:23:06.728Z,99508.69
2023-03-19T05:26:09.904Z,99503.97
2023-03-19T05:29:00.501Z,99502.16
2023-03-19T05:31:57.445Z,99505.44
2023-03-19T05:34:27.637Z,99501.22
2023-03-19T05:37:04.145Z,99508.44
2023-03-19T05:39:53.057Z,99510.13
2023-03-19T05:42:23.985Z,99499.75
2023-03-19T05:45:00.032Z,99503.88
2023-03-19T05:47:52.155Z,99509.53
2023-03-19T05:50:47.164Z,99526.03
2023-03-19T05:53:30.936Z,99529.41
2023-03-19T05:56:36.486Z,99528.44
2023-03-19T05:59:45.298Z,99528.78
2023-03-19T06:02:38.371Z,99530.75
2023-03-19T06:05:39.420Z,99545.44
2023-03-19T06:08:37.294Z,99549.88
2023-03-19T06:11:30.685Z,99547.13
2023-03-19T06:14:28.995Z,99535.44
2023-03-19T06:17:43.347Z,99549.44
2023-03-19T06:20:19.916Z,99561.47
2023-03-19T06:23:16.252Z,99551.81
2023-03-19T06:26:04.668Z,99548.19
2023-03-19T06:28:56.353Z,99543.16
2023-03-19T06:31:24.666Z,99551.34
2023-03-19T06:34:17.273Z,99552.91
2023-03-19T06:36:55.693Z,99557.00
2023-03-19T06:39:25.139Z,99545.75
2023-03-19T06:42:01.053Z,99557.09
2023-03-19T06:44:38.157Z,99568.31
2023-03-19T06:47:07.128Z,99565.44
2023-03-19T06:49:43.978Z,99563.84
2023-03-19T06:52:20.398Z,99573.28
2023-03-19T06:54:51.012Z,99570.63
2023-03-19T06:57:27.650Z,99577.19
2023-03-19T07:00:10.576Z,99583.38
2023-03-19T07:02:40.331Z,99587.97
2023-03-19T07:05:25.328Z,99583.97
2023-03-19T07:07:53.588Z,99566.81
2023-03-19T07:10:31.425Z,99565.34
2023-03-19T07:13:10.791Z,99570.78
2023-03-19T07:15:39.885Z,99557.25
2023-03-19T07:18:15.142Z,99559.19
2023-03-19T07:21:05.314Z,99564.38
2023-03-19T07:23:43.028Z,99572.44
2023-03-19T07:26:11.745Z,99592.22
2023-03-19T07:28:46.538Z,99602.47
2023-03-19T07:31:22.576Z,99596.19
2023-03-19T07:33:53.031Z,99591.59
2023-03-19T07:36:23.737Z,99604.22
2023-03-19T07:38:59.101Z,99601.31
2023-03-19T07:41:32.726Z,99609.38
2023-03-19T07:44:08.276Z,99611.44
2023-03-19T07:46:45.023Z,99612.97
2023-03-19T07:49:18.801Z,99618.03
2023-03-19T07:51:52.774Z,99622.81
2023-03-19T07:54:24.591Z,99609.19
2023-03-19T07:56:53.605Z,99616.53
2023-03-19T07:59:24.145Z,99630.94
2023-03-19T08:02:02.337Z,99631.25
2023-03-19T08:04:33.617Z,99620.41
2023-03-19T08:07:06.216Z,99619.25
2023-03-19T08:09:35.040Z,99617.00
2023-03-19T08:12:07.297Z,99626.00
2023-03-19T08:14:41.596Z,99616.66
2023-03-19T08:17:17.200Z,99615.63
2023-03-19T08:19:48.336Z,99619.31
2023-03-19T08:22:20.592Z,99627.66
2023-03-19T08:24:49.102Z,99629.03
2023-03-19T08:27:22.662Z,99630.44
2023-03-19T08:29:54.564Z,99625.22
2023-03-19T08:32:25.627Z,99627.78
2023-03-19T08:34:56.746Z,99641.03
2023-03-19T08:37:28.155Z,99627.16
2023-03-19T08:39:56.874Z,99623.06
2023-03-19T08:42:32.324Z,99617.81
2023-03-19T08:45:03.418Z,99625.44
2023-03-19T08:47:37.553Z,99625.38
2023-03-19T08:50:15.628Z,99615.47
2023-03-19T08:52:52.513Z,99621.38
2023-03-19T08:55:21.347Z,99610.41
2023-03-19T08:57:50.805Z,99609.81
2023-03-19T09:00:24.894Z,99614.31
2023-03-19T09:03:01.385Z,99613.91
2023-03-19T09:05:32.722Z,99620.09
2023-03-19T09:08:02.995Z,99617.28
2023-03-19T09:10:38.716Z,99614.06
2023-03-19T09:13:06.903Z,99620.78
2023-03-19T09:15:37.519Z,99628.22
2023-03-19T09:18:11.506Z,99628.38
2023-03-19T09:20:42.786Z,99626.81
2023-03-19T09:23:12.450Z,99632.56
2023-03-19T09:25:43.585Z,99633.69
2023-03-19T09:28:19.806Z,99636.31
2023-03-19T09:30:54.119Z,99631.88
2023-03-19T09:33:25.345Z,99632.25
2023-03-19T09:36:02.861Z,99635.31
2023-03-19T09:38:32.235Z,99628.41
2023-03-19T09:41:15.285Z,99638.94
2023-03-19T09:44:01.864Z,99633.03
2023-03-19T09:46:40.107Z,99621.59
2023-03-19T09:49:16.686Z,99613.63
2023-03-19T09:51:55.936Z,99606.59
2023-03-19T09:54:36.993Z,99607.91
2023-03-19T09:57:08.893Z,99620.56
2023-03-19T09:59:38.410Z,99617.75
2023-03-19T10:02:39.583Z,99616.06
2023-03-19T10:05:20.634Z,99614.56
2023-03-19T10:08:05.231Z,99608.59
2023-03-19T10:11:06.919Z,99615.09
2023-03-19T10:13:47.105Z,99617.25
2023-03-19T10:16:21.062Z,99618.63
2023-03-19T10:22:01.333Z,99609.00
2023-03-19T10:24:34.647Z,99598.84
2023-03-19T10:27:12.759Z,99594.78
2023-03-19T10:29:43.552Z,99596.00
2023-03-19T10:32:19.859Z,99603.50
2023-03-19T10:34:53.918Z,99599.59
2023-03-19T10:37:27.118Z,99605.56
2023-03-19T10:39:58.894Z,99602.88
2023-03-19T10:42:46.971Z,99598.13
2023-03-19T10:45:24.452Z,99600.28
2023-03-19T10:47:58.380Z,99599.53
2023-03-19T10:50:52.077Z,99610.38
2023-03-19T10:53:49.406Z,99609.31
2023-03-19T10:56:27.358Z,99608.53
2023-03-19T10:59:22.534Z,99604.34
2023-03-19T11:02:02.638Z,99608.31
2023-03-19T11:04:42.656Z,99593.22
2023-03-19T11:07:30.931Z,99594.03
2023-03-19T11:10:05.111Z,99598.91
2023-03-19T11:12:37.508Z,99602.72
2023-03-19T11:15:23.319Z,99600.25
2023-03-19T11:18:01.103Z,99590.25
2023-03-19T11:20:36.416Z,99592.72
2023-03-19T11:23:17.975Z,99603.09
2023-03-19T11:25:51.378Z,99598.28
2023-03-19T11:28:36.515Z,99589.34
2023-03-19T11:31:12.734Z,99596.25
2023-03-19T11:33:58.937Z,99593.88
2023-03-19T11:36:30.993Z,99592.41
2023-03-19T11:39:22.292Z,99581.69
2023-03-19T11:42:31.407Z,99574.97
2023-03-19T11:45:13.330Z,99569.31
2023-03-19T11:47:49.430Z,99575.13
2023-03-19T11:50:32.739Z,99572.09
2023-03-19T11:53:12.062Z,99563.09
2023-03-19T11:56:02.365Z,99561.19
2023-03-19T11:59:06.654Z,99556.16
2023-03-19T12:01:59.516Z,99555.81
2023-03-19T12:04:48.812Z,99555.44
2023-03-19T12:07:26.644Z,99548.41
2023-03-19T12:10:04.572Z,99548.13
2023-03-19T12:12:39.554Z,99536.28
2023-03-19T12:15:26.767Z,99541.25
2023-03-19T12:18:19.855Z,99550.00
2023-03-19T12:20:55.833Z,99538.34
2023-03-19T12:23:37.935Z,99541.78
2023-03-19T12:26:17.473Z,99545.81
2023-03-19T12:28:59.739Z,99538.63
2023-03-19T12:31:48.406Z,99531.06
2023-03-19T12:34:33.795Z,99523.34
2023-03-19T12:37:13.755Z,99518.56
2023-03-19T12:39:55.885Z,99514.28
2023-03-19T12:42:33.315Z,99515.31
2023-03-19T12:45:15.550Z,99523.84
2023-03-19T12:47:48.316Z,99512.56
2023-03-19T12:50:30.541Z,99510.22
2023-03-19T12:53:03.300Z,99510.94
2023-03-19T12:55:42.189Z,99507.41
2023-03-19T12:58:22.570Z,99504.91
2023-03-19T13:01:11.826Z,99502.22
2023-03-19T13:03:47.085Z,99506.91
2023-03-19T13:06:22.201Z,99504.56
2023-03-19T13:08:54.296Z,99493.16
2023-03-19T13:11:37.495Z,99481.06
2023-03-19T13:14:13.960Z,99486.59
2023-03-19T13:16:50.238Z,99487.94
2023-03-19T13:19:28.517Z,99498.00
2023-03-19T13:22:03.959Z,99496.53
2023-03-19T13:24:37.496Z,99490.47
2023-03-19T13:27:13.523Z,99495.19
2023-03-19T13:29:59.972Z,99493.81
2023-03-19T13:32:44.507Z,99478.06
2023-03-19T13:35:31.783Z,99479.06
2023-03-19T13:38:03.728Z,99485.28
2023-03-19T13:40:47.889Z,99489.63
2023-03-19T13:43:55.640Z,99494.00
2023-03-19T13:46:54.928Z,99489.47
2023-03-19T13:50:21.374Z,99483.06
2023-03-19T13:52:52.539Z,99485.44
2023-03-19T13:55:47.608Z,99471.66
2023-03-19T13:58:42.963Z,99475.72
2023-03-19T14:01:13.060Z,99467.81
2023-03-19T14:04:03.038Z,99472.16
2023-03-19T14:06:39.450Z,99464.97
2023-03-19T14:09:33.800Z,99464.75
2023-03-19T14:12:32.442Z,99458.06
2023-03-19T14:15:06.429Z,99459.41
2023-03-19T14:17:43.633Z,99456.91
2023-03-19T14:20:37.631Z,99455.72
2023-03-19T14:23:39.565Z,99445.97
2023-03-19T14:26:18.847Z,99444.66
2023-03-19T14:29:01.455Z,99433.59
2023-03-19T14:31:38.982Z,99445.31
2023-03-19T14:34:24.721Z,99438.81
2023-03-19T14:37:01.619Z,99437.63
2023-03-19T14:39:44.240Z,99440.16
2023-03-19T14:42:24.832Z,99435.81
2023-03-19T14:45:31.590Z,99447.22
2023-03-19T14:48:28.720Z,99438.66
2023-03-19T14:51:29.319Z,99434.47
2023-03-19T14:54:04.853Z,99441.50
2023-03-19T14:56:42.766Z,99439.50
2023-03-19T14:59:16.685Z,99445.38
2023-03-19T15:02:00.382Z,99441.16
2023-03-19T15:04:32.236Z,99453.59
2023-03-19T15:07:18.560Z,99448.88
2023-03-19T15:09:52.069Z,99448.19
2023-03-19T15:13:15.677Z,99437.97
2023-03-19T15:16:14.680Z,99441.84
2023-03-19T15:18:47.285Z,99440.16
2023-03-19T15:21:18.900Z,99443.66
2023-03-19T15:23:57.588Z,99440.81
2023-03-19T15:26:37.382Z,99440.50
2023-03-19T15:29:14.253Z,99446.22
2023-03-19T15:31:52.749Z,99448.75
2023-03-19T15:34:38.225Z,99449.22
2023-03-19T15:37:23.374Z,99447.88
2023-03-19T15:40:01.924Z,99446.38
2023-03-19T15:42:40.504Z,99438.16
2023-03-19T15:45:26.913Z,99446.53
2023-03-19T15:47:59.676Z,99448.84
2023-03-19T15:50:40.268Z,99457.09
2023-03-19T15:53:34.751Z,99454.41
2023-03-19T15:56:19.001Z,99454.03
2023-03-19T15:58:55.173Z,99457.56
2023-03-19T16:01:30.260Z,99460.56
2023-03-19T16:04:04.175Z,99462.41
2023-03-19T16:06:43.480Z,99457.88
2023-03-19T16:09:35.467Z,99467.94
2023-03-19T16:12:34.046Z,99464.41
2023-03-19T16:15:30.453Z,99468.44
2023-03-19T16:18:36.203Z,99467.56
2023-03-19T16:21:21.930Z,99475.78
2023-03-19T16:24:08.003Z,99470.44
2023-03-19T16:26:42.881Z,99477.94
2023-03-19T16:29:41.919Z,99475.75
2023-03-19T16:32:27.527Z,99477.09
2023-03-19T16:35:19.003Z,99480.78
2023-03-19T16:38:02.020Z,99480.91
2023-03-19T16:40:53.766Z,99481.75
2023-03-19T16:43:29.673Z,99483.25
2023-03-19T16:46:17.927Z,99486.41
2023-03-19T16:49:00.714Z,99484.22
2023-03-19T16:51:37.482Z,99494.06
2023-03-19T16:54:09.893Z,99489.91
2023-03-19T16:56:43.305Z,99500.28
2023-03-19T16:59:25.954Z,99494.22
2023-03-19T17:02:07.229Z,99500.06
2023-03-19T17:04:39.346Z,99503.75
2023-03-19T17:07:24.901Z,99504.94
2023-03-19T17:09:55.180Z,99503.88
2023-03-19T17:12:29.570Z,99502.16
2023-03-19T17:15:02.927Z,99504.06
2023-03-19T17:17:37.544Z,99504.06
2023-03-19T17:20:18.848Z,99511.56
2023-03-19T17:23:24.847Z,99507.16
2023-03-19T17:25:57.050Z,99508.78
2023-03-19T17:28:36.065Z,99515.16
2023-03-19T17:31:08.193Z,99517.09
2023-03-19T17:34:08.104Z,99520.25
2023-03-19T17:36:44.758Z,99522.53
2023-03-19T17:39:26.115Z,99515.84
2023-03-19T17:42:09.905Z,99517.31
2023-03-19T17:44:48.536Z,99517.94
2023-03-19T17:47:30.031Z,99513.59
2023-03-19T17:50:09.175Z,99512.28
2023-03-19T17:52:49.663Z,99510.28
2023-03-19T17:55:32.625Z,99517.31
2023-03-19T17:58:26.476Z,99508.44
2023-03-19T18:01:09.752Z,99514.78
2023-03-19T18:03:41.813Z,99518.94
2023-03-19T18:06:28.353Z,99521.16
2023-03-19T18:09:09.623Z,99514.25
2023-03-19T18:11:45.473Z,99518.94
2023-03-19T18:14:28.656Z,99515.56
2023-03-19T18:17:06.289Z,99517.53
2023-03-19T18:19:44.340Z,99517.25
2023-03-19T18:22:21.090Z,99522.09
2023-03-19T18:24:53.921Z,99509.00
2023-03-19T18:27:45.263Z,99505.78
2023-03-19T18:30:33.195Z,99516.97
2023-03-19T18:33:09.917Z,99510.47
2023-03-19T18:35:49.463Z,99513.47
2023-03-19T18:38:40.957Z,99519.44
2023-03-19T18:41:23.220Z,99514.53
2023-03-19T18:44:15.657Z,99516.84
2023-03-19T18:46:54.897Z,99522.19
2023-03-19T18:49:43.939Z,99523.03
2023-03-19T18:52:38.546Z,99533.88
2023-03-19T18:55:18.981Z,99527.03
2023-03-19T18:58:02.158Z,99530.81
2023-03-19T19:00:42.017Z,99531.97
2023-03-19T19:03:21.231Z,99521.66
2023-03-19T19:05:55.947Z,99522.78
2023-03-19T19:08:35.658Z,99529.31
2023-03-19T19:11:18.824Z,99534.09
2023-03-19T19:13:56.166Z,99541.47
2023-03-19T19:16:45.235Z,99535.88
2023-03-19T19:22:27.718Z,99537.06
2023-03-19T19:25:04.310Z,99544.94
2023-03-19T19:27:47.950Z,99535.94
2023-03-19T19:30:34.377Z,99538.94
2023-03-19T19:33:26.776Z,99541.19
2023-03-19T19:36:06.635Z,99546.31
2023-03-19T19:38:38.679Z,99540.28
2023-03-19T19:41:19.085Z,99544.56
2023-03-19T19:43:51.501Z,99551.75
2023-03-19T19:46:27.294Z,99542.50
2023-03-19T19:49:08.752Z,99541.91
2023-03-19T19:51:43.392Z,99548.69
2023-03-19T19:54:22.769Z,99546.41
2023-03-19T19:56:56.882Z,99547.91
2023-03-19T19:59:35.249Z,99547.69
2023-03-19T20:02:29.069Z,99549.53
2023-03-19T20:05:25.955Z,99543.94
2023-03-19T20:08:16.800Z,99551.28
2023-03-19T20:10:48.287Z,99548.91
2023-03-19T20:13:29.850Z,99553.06
2023-03-19T20:16:02.478Z,99558.09
2023-03-19T20:18:44.011Z,99554.22
2023-03-19T20:21:30.324Z,99549.88
2023-03-19T20:24:09.905Z,99552.41
2023-03-19T20:26:45.195Z,99553.53
2023-03-19T20:29:22.139Z,99556.50
2023-03-19T20:32:01.403Z,99559.88
2023-03-19T20:34:43.504Z,99566.84
2023-03-19T20:37:28.752Z,99567.47
2023-03-19T20:40:02.798Z,99561.28
2023-03-19T20:42:48.718Z,99557.88
2023-03-19T20:45:34.734Z,99556.50
2023-03-19T20:48:18.784Z,99564.22
2023-03-19T20:50:53.978Z,99557.06
2023-03-19T20:53:26.033Z,99559.03
2023-03-19T20:56:01.261Z,99562.00
2023-03-19T20:58:39.555Z,99563.31
2023-03-19T21:01:13.955Z,99561.78
2023-03-19T21:03:49.056Z,99572.16
2023-03-19T21:06:46.284Z,99561.50
2023-03-19T21:09:33.694Z,99563.16
2023-03-19T21:12:16.249Z,99559.28
2023-03-19T21:14:48.042Z,99563.66
2023-03-19T21:17:32.476Z,99560.91
2023-03-19T21:20:12.570Z,99563.00
2023-03-19T21:23:00.026Z,99556.94
2023-03-19T21:25:34.694Z,99560.91
2023-03-19T21:28:07.336Z,99563.09
2023-03-19T21:30:44.323Z,99557.50
2023-03-19T21:33:27.475Z,99557.81
2023-03-19T21:36:04.391Z,99562.88
2023-03-19T21:38:43.748Z,99559.91
2023-03-19T21:41:24.993Z,99561.91
2023-03-19T21:43:58.292Z,99563.56
2023-03-19T21:46:30.762Z,99558.53
2023-03-19T21:49:01.232Z,99566.25
2023-03-19T21:51:38.320Z,99561.09
2023-03-19T21:54:10.161Z,99564.63
2023-03-19T21:56:50.372Z,99572.63
2023-03-19T21:59:24.882Z,99571.09
2023-03-19T22:02:04.414Z,99576.16
2023-03-19T22:04:34.294Z,99572.78
2023-03-19T22:07:12.188Z,99577.81
2023-03-19T22:09:44.021Z,99585.56
2023-03-19T22:12:29.807Z,99577.81
2023-03-19T22:15:00.154Z,99583.44
2023-03-19T22:17:36.735Z,99577.00
2023-03-19T22:20:09.086Z,99571.13
2023-03-19T22:22:41.444Z,99578.00
2023-03-19T22:25:12.491Z,99578.25
2023-03-19T22:27:46.200Z,99572.38
2023-03-19T22:30:26.741Z,99567.44
2023-03-19T22:33:05.228Z,99572.78
2023-03-19T22:35:37.444Z,99572.34
2023-03-19T22:38:13.710Z,99571.81
2023-03-19T22:40:44.362Z,99575.16
2023-03-19T22:43:29.138Z,99573.50
2023-03-19T22:46:03.671Z,99567.31
2023-03-19T22:48:35.999Z,99569.13
2023-03-19T22:51:15.709Z,99566.91
2023-03-19T22:53:47.185Z,99565.06
2023-03-19T22:56:23.485Z,99573.63
2023-03-19T22:58:57.373Z,99570.41
2023-03-19T23:01:34.095Z,99565.66
2023-03-19T23:04:21.938Z,99573.34
2023-03-19T23:06:51.662Z,99580.06
2023-03-19T23:09:24.177Z,99580.22
2023-03-19T23:11:54.610Z,99577.22
2023-03-19T23:14:32.626Z,99583.19
2023-03-19T23:17:04.180Z,99578.38
2023-03-19T23:19:37.461Z,99586.84
2023-03-19T23:22:15.837Z,99578.66
2023-03-19T23:24:47.250Z,99582.69
2023-03-19T23:27:24.422Z,99576.34
2023-03-19T23:29:58.564Z,99584.78
2023-03-19T23:32:32.734Z,99569.31
2023-03-19T23:35:06.753Z,99583.50
2023-03-19T23:37:35.460Z,99566.69
2023-03-19T23:40:06.540Z,99577.97
2023-03-19T23:42:39.401Z,99584.44
2023-03-19T23:45:22.866Z,99578.19
2023-03-19T23:47:56.422Z,99571.34
2023-03-19T23:50:32.515Z,99579.13
2023-03-19T23:53:05.519Z,99574.81
2023-03-19T23:55:35.303Z,99577.56
2023-03-19T23:58:05.028Z,99591.28
